Portada
METAR-TAF:

METAR-TAF

Aeroports :

Accomack County Airport

Melfa, Virgínia, Estats Units d'Amèrica

latitud: 37-39N, longitud: 075-46W, altitud: 15 m

Observació

L'informe es va fer fa 1 hora i 22 minuts, a les 06:15 UTC
Vent 4 kt del Est
Temperatura 16°C
Humitat 100%
Pressió 1022 hPa
Visibilitat: 0.8 km
Cel cobert a una alçada de 200 ft
boira

METAR: KMFV 270615Z AUTO 08004KT 1/2SM FG OVC002 16/16 A3018 RMK AO2 T01600157

Hora: 03:37 (07:37 UTC)


TAF: manca

Observacions i pronòstics meteorològics de més de 4000 aeroports (METAR i TAF).

Les estacions disponibles són els punts grocs i vermells al mapa.

Posi el ratolí al punt desitjat per veure el nom de l'estació.

Feu clic per veure les observacions i els pronòstics meteorològics.

Per canviar el mapa: feu clic els botons verds amb una creu de color negre per apropar; al botó verd amb un guió per allunyar la imatge; o en les fletxes verdes per a mapes adjacents.


METAR-TAF: